Time;durP1;ratioP1;P1;durP2;ratioP2;P2;SDS_P1;SDS_P2;PMS_P1;PMS_P2;Temp;Humidity;BMP_temperature;BMP_pressure;BME280_temperature;BME280_humidity;BME280_pressure;Samples;Min_cycle;Max_cycle;Signal;HPM_P1;HPM_P2
2022/03/03 00:00:13;;;;;;;10.23;8.43;;;;;;;19.01;32.71;101464.16;5073912;28;20056;-84
2022/03/03 00:02:42;;;;;;;12.52;9.43;;;;;;;19.01;32.73;101456.13;5074032;28;20060;-84
2022/03/03 00:05:10;;;;;;;10.93;8.93;;;;;;;19.00;32.59;101465.16;5073525;28;20045;-83
2022/03/03 00:07:39;;;;;;;12.23;9.18;;;;;;;19.01;32.72;101464.16;5073131;28;20109;-84
2022/03/03 00:10:09;;;;;;;10.02;9.00;;;;;;;19.01;32.67;101459.66;5071945;28;20051;-83
2022/03/03 00:12:36;;;;;;;10.93;8.50;;;;;;;19.01;32.75;101453.44;5073242;28;20051;-83
2022/03/03 00:15:04;;;;;;;10.18;8.00;;;;;;;19.01;32.77;101458.81;5072387;28;20048;-84
2022/03/03 00:17:33;;;;;;;9.75;8.25;;;;;;;19.01;32.60;101456.97;5073319;28;20511;-83
2022/03/03 00:20:00;;;;;;;11.15;8.23;;;;;;;19.01;32.79;101453.44;5073532;28;20044;-83
2022/03/03 00:22:28;;;;;;;10.27;8.65;;;;;;;19.01;32.95;101451.59;5073984;28;20107;-84
2022/03/03 00:24:55;;;;;;;9.50;8.23;;;;;;;19.01;32.70;101448.91;5071980;28;20040;-84
2022/03/03 00:27:23;;;;;;;9.98;8.60;;;;;;;19.02;32.72;101457.81;5073390;28;20041;-84
2022/03/03 00:29:51;;;;;;;9.38;8.48;;;;;;;19.01;32.78;101456.97;5073614;28;20052;-83
2022/03/03 00:32:19;;;;;;;11.43;8.85;;;;;;;19.02;32.70;101452.44;5072325;28;20049;-83
2022/03/03 00:34:46;;;;;;;8.68;7.70;;;;;;;19.01;32.99;101448.91;5073616;28;20037;-83
2022/03/03 00:37:14;;;;;;;9.52;8.20;;;;;;;19.01;32.86;101442.69;5075169;28;20040;-83
2022/03/03 00:39:41;;;;;;;9.13;7.65;;;;;;;19.01;32.67;101454.28;5075545;28;20075;-83
2022/03/03 00:42:09;;;;;;;9.77;8.18;;;;;;;19.01;32.69;101448.91;5076404;28;20059;-83
2022/03/03 00:44:36;;;;;;;10.32;8.80;;;;;;;19.01;32.58;101442.69;5077412;28;20045;-83
2022/03/03 00:47:04;;;;;;;10.82;7.55;;;;;;;19.02;32.77;101460.50;5076208;28;20044;-83
2022/03/03 00:49:31;;;;;;;11.60;8.18;;;;;;;19.02;32.63;101447.09;5077410;28;20048;-83
2022/03/03 00:51:58;;;;;;;10.48;7.80;;;;;;;19.01;32.58;101451.59;5076458;28;20041;-83
2022/03/03 00:54:26;;;;;;;10.38;8.55;;;;;;;19.01;32.64;101446.22;5076241;28;20057;-83
2022/03/03 00:56:53;;;;;;;11.23;7.63;;;;;;;19.02;32.68;101452.44;5076567;28;20373;-82
2022/03/03 00:59:21;;;;;;;8.13;7.32;;;;;;;19.01;32.60;101456.13;5076207;28;20037;-82
2022/03/03 01:01:48;;;;;;;10.23;7.80;;;;;;;19.01;32.71;101459.66;5076668;28;20491;-83
2022/03/03 01:04:16;;;;;;;8.50;7.50;;;;;;;19.01;32.58;101448.06;5075881;28;20045;-83
2022/03/03 01:06:44;;;;;;;9.82;7.97;;;;;;;19.01;32.68;101448.91;5076280;28;20045;-83
2022/03/03 01:09:11;;;;;;;10.05;7.85;;;;;;;19.01;32.83;101448.06;5076028;28;20048;-83
2022/03/03 01:11:38;;;;;;;9.10;7.93;;;;;;;19.01;32.67;101442.69;5076542;28;20056;-83
2022/03/03 01:14:06;;;;;;;8.63;7.70;;;;;;;19.01;32.68;101438.19;5076740;28;20448;-83
2022/03/03 01:16:33;;;;;;;9.65;8.27;;;;;;;19.01;32.72;101445.38;5077105;28;20469;-84
2022/03/03 01:19:01;;;;;;;7.93;6.72;;;;;;;19.00;32.78;101436.47;5077165;28;20053;-84
2022/03/03 01:21:34;;;;;;;;;;;;;;;19.01;32.77;101430.13;5076927;28;20495;-84
2022/03/03 01:24:01;;;;;;;9.00;7.40;;;;;;;19.01;32.85;101435.50;5075978;28;20362;-84
2022/03/03 01:26:28;;;;;;;9.55;7.85;;;;;;;19.01;32.74;101435.50;5076320;28;20048;-83
2022/03/03 01:28:56;;;;;;;7.75;7.00;;;;;;;19.01;32.61;101440.03;5074877;28;20044;-84
2022/03/03 01:31:23;;;;;;;8.77;7.13;;;;;;;19.01;32.76;101435.50;5075717;28;20049;-84
2022/03/03 01:33:51;;;;;;;10.10;8.13;;;;;;;19.01;32.48;101430.13;5075772;28;20403;-84
2022/03/03 01:36:18;;;;;;;8.25;7.38;;;;;;;19.02;32.63;101425.63;5076202;28;20052;-85
2022/03/03 01:38:46;;;;;;;8.05;7.25;;;;;;;19.02;32.60;101431.00;5076591;28;20047;-84
2022/03/03 01:41:13;;;;;;;8.95;7.20;;;;;;;19.01;32.72;101426.59;5075883;28;20048;-84
2022/03/03 01:43:41;;;;;;;9.63;7.38;;;;;;;19.01;32.78;101427.44;5076489;28;20115;-85
2022/03/03 01:46:08;;;;;;;7.70;6.90;;;;;;;19.01;32.73;101426.59;5075768;28;20048;-85
2022/03/03 01:48:36;;;;;;;9.35;7.03;;;;;;;19.02;32.78;101418.41;5075434;28;20432;-84
2022/03/03 01:51:03;;;;;;;8.57;7.32;;;;;;;19.02;32.72;101421.09;5075897;28;20385;-84
2022/03/03 01:53:30;;;;;;;9.30;7.75;;;;;;;19.02;32.69;101414.88;5075290;28;20112;-85
2022/03/03 01:55:58;;;;;;;8.00;7.05;;;;;;;19.03;32.55;101404.03;5075001;28;20492;-85
2022/03/03 01:58:25;;;;;;;8.63;7.72;;;;;;;19.02;32.54;101412.19;5076072;28;20044;-85
2022/03/03 02:00:53;;;;;;;9.55;7.88;;;;;;;19.01;32.74;101414.03;5075406;28;20048;-84
2022/03/03 02:03:20;;;;;;;9.52;6.97;;;;;;;19.02;32.75;101396.09;5075437;28;20499;-84
2022/03/03 02:05:49;;;;;;;7.75;6.40;;;;;;;19.02;32.75;101402.31;5075681;28;20373;-86
2022/03/03 02:08:16;;;;;;;7.95;7.15;;;;;;;19.01;32.78;101392.56;5075297;28;20060;-86
2022/03/03 02:10:44;;;;;;;8.25;7.40;;;;;;;19.01;32.77;101379.16;5076154;28;20044;-86
2022/03/03 02:13:11;;;;;;;8.02;6.63;;;;;;;19.02;32.61;101382.69;5075924;28;20045;-86
2022/03/03 02:15:39;;;;;;;8.70;6.65;;;;;;;19.02;32.89;101380.84;5074638;28;20052;-87
2022/03/03 02:18:06;;;;;;;7.07;6.38;;;;;;;19.02;32.82;101380.00;5074707;28;20412;-85
2022/03/03 02:20:34;;;;;;;8.13;6.80;;;;;;;19.02;32.69;101371.94;5074760;28;20047;-85
2022/03/03 02:23:01;;;;;;;7.95;6.43;;;;;;;19.02;32.75;101366.59;5074981;28;20045;-85
2022/03/03 02:25:28;;;;;;;9.52;7.00;;;;;;;19.02;32.84;101367.44;5074934;28;20063;-85
2022/03/03 02:27:56;;;;;;;8.60;6.88;;;;;;;19.02;32.78;101361.22;5074893;28;20400;-85
2022/03/03 02:30:23;;;;;;;6.85;6.15;;;;;;;19.01;32.89;101359.50;5074227;28;20045;-85
2022/03/03 02:32:50;;;;;;;7.75;6.63;;;;;;;19.02;32.81;101354.03;5074951;28;20041;-85
2022/03/03 02:35:18;;;;;;;8.18;6.47;;;;;;;19.01;32.74;101346.94;5074282;28;20047;-85
2022/03/03 02:37:46;;;;;;;7.80;7.00;;;;;;;19.01;32.71;101354.16;5074541;28;20052;-85
2022/03/03 02:40:20;;;;;;;7.88;6.28;;;;;;;19.01;32.72;101349.63;5075298;28;20443;-85
2022/03/03 02:42:49;;;;;;;8.38;7.10;;;;;;;19.01;32.71;101346.94;5074721;28;20060;-85
2022/03/03 02:45:17;;;;;;;7.18;6.47;;;;;;;19.02;32.78;101345.13;5073043;28;20055;-85
2022/03/03 02:47:46;;;;;;;7.55;6.78;;;;;;;19.02;32.77;101337.06;5074798;28;20334;-85
2022/03/03 02:50:16;;;;;;;8.65;6.22;;;;;;;19.02;32.86;101332.56;5073676;28;20408;-85
2022/03/03 02:52:43;;;;;;;7.95;6.95;;;;;;;19.01;32.80;101330.84;5075180;28;20059;-85
2022/03/03 02:55:12;;;;;;;7.47;6.70;;;;;;;19.02;32.86;101331.69;5074341;28;20044;-84
2022/03/03 02:57:55;;;;;;;7.43;6.65;;;;;;;19.02;32.85;101335.25;5056463;28;20064;-84
2022/03/03 03:00:31;;;;;;;7.70;6.90;;;;;;;19.02;32.68;101337.06;5075047;28;20389;-85
2022/03/03 03:02:58;;;;;;;6.93;5.88;;;;;;;19.02;32.86;101337.06;5074758;28;20376;-84
2022/03/03 03:05:26;;;;;;;8.45;7.50;;;;;;;19.01;32.71;101341.59;5074174;28;20041;-84
2022/03/03 03:07:53;;;;;;;7.60;6.80;;;;;;;19.01;32.63;101332.69;5074061;28;20060;-85
2022/03/03 03:10:21;;;;;;;7.22;5.97;;;;;;;19.02;32.86;101332.56;5074502;28;20041;-84
2022/03/03 03:12:48;;;;;;;6.53;5.82;;;;;;;19.02;32.65;101337.06;5073625;28;20040;-84
2022/03/03 03:15:16;;;;;;;8.07;6.50;;;;;;;19.02;32.89;101337.91;5074536;28;20036;-84
2022/03/03 03:17:43;;;;;;;7.13;6.43;;;;;;;19.02;32.39;101332.56;5072978;28;20052;-83
2022/03/03 03:20:12;;;;;;;7.55;6.30;;;;;;;19.02;32.45;101332.56;5074298;28;20040;-83
2022/03/03 03:22:40;;;;;;;6.90;5.82;;;;;;;19.02;32.86;101326.34;5073422;28;20040;-83
2022/03/03 03:25:10;;;;;;;9.98;7.22;;;;;;;19.02;32.93;101326.34;5074114;28;20048;-83
2022/03/03 03:27:39;;;;;;;7.57;6.45;;;;;;;19.02;32.87;101329.03;5073791;28;20048;-83
2022/03/03 03:30:09;;;;;;;6.75;6.07;;;;;;;19.02;32.79;101329.88;5073800;28;20055;-84
2022/03/03 03:32:37;;;;;;;9.25;6.07;;;;;;;19.02;32.72;101320.97;5074245;28;20435;-84
2022/03/03 03:35:05;;;;;;;6.88;6.18;;;;;;;19.02;32.89;101320.97;5073258;28;20056;-84
2022/03/03 03:37:33;;;;;;;7.05;6.35;;;;;;;19.02;32.82;101320.97;5074012;28;20218;-82
2022/03/03 03:40:00;;;;;;;8.20;7.35;;;;;;;19.03;32.75;101317.31;5073635;28;20045;-82
2022/03/03 03:42:28;;;;;;;8.40;7.47;;;;;;;19.03;32.92;101320.00;5073905;28;20044;-82
2022/03/03 03:44:55;;;;;;;8.02;6.70;;;;;;;19.03;32.95;101320.00;5073830;28;20047;-82
2022/03/03 03:47:22;;;;;;;6.82;6.13;;;;;;;19.02;32.77;101313.78;5073850;28;20055;-82
2022/03/03 03:49:50;;;;;;;7.00;5.78;;;;;;;19.01;32.97;101317.44;5073606;28;20045;-82
2022/03/03 03:52:17;;;;;;;7.43;6.57;;;;;;;19.03;32.86;101320.00;5073472;28;20411;-82
2022/03/03 03:54:45;;;;;;;6.75;5.88;;;;;;;19.02;32.83;101316.47;5071553;28;20049;-82
2022/03/03 03:57:12;;;;;;;7.45;6.38;;;;;;;19.03;32.95;101314.63;5073041;28;20071;-82
2022/03/03 03:59:40;;;;;;;8.05;6.55;;;;;;;19.04;32.94;101319.03;5073709;28;20044;-83
2022/03/03 04:02:07;;;;;;;9.85;6.50;;;;;;;19.02;32.77;101311.09;5073183;28;20041;-83
2022/03/03 04:04:35;;;;;;;6.45;5.75;;;;;;;19.03;32.80;101311.94;5073360;28;20047;-83
2022/03/03 04:07:02;;;;;;;7.72;6.53;;;;;;;19.03;32.85;101312.78;5072956;28;20051;-83
2022/03/03 04:09:30;;;;;;;6.97;6.28;;;;;;;19.03;32.75;101307.41;5071775;28;20052;-84
2022/03/03 04:11:57;;;;;;;7.70;6.57;;;;;;;19.03;32.92;101298.53;5076210;28;20047;-84
2022/03/03 04:14:25;;;;;;;8.82;5.95;;;;;;;19.03;32.89;101303.88;5076820;28;20044;-84
2022/03/03 04:16:52;;;;;;;6.50;5.78;;;;;;;19.04;32.78;101302.94;5075474;28;20051;-83
2022/03/03 04:19:20;;;;;;;7.13;6.43;;;;;;;19.03;32.92;101301.19;5075873;28;20045;-83
2022/03/03 04:21:47;;;;;;;6.55;5.85;;;;;;;19.03;33.11;101303.88;5077417;28;20052;-84
2022/03/03 04:24:15;;;;;;;6.97;5.80;;;;;;;19.02;32.96;101308.41;5077114;28;20349;-84
2022/03/03 04:26:42;;;;;;;6.53;5.75;;;;;;;19.02;33.08;101311.09;5076719;28;20045;-83
2022/03/03 04:29:10;;;;;;;7.13;6.38;;;;;;;19.03;32.92;101314.63;5076574;28;20107;-84
2022/03/03 04:31:37;;;;;;;8.27;6.18;;;;;;;19.01;32.98;101306.69;5076385;28;20048;-83
2022/03/03 04:34:05;;;;;;;8.05;6.93;;;;;;;19.02;32.77;101302.19;5076439;28;20176;-84
2022/03/03 04:36:32;;;;;;;7.20;6.38;;;;;;;19.02;33.06;101308.41;5076508;28;20047;-84
2022/03/03 04:38:59;;;;;;;7.78;6.28;;;;;;;19.02;33.11;101307.56;5076406;28;20408;-83
2022/03/03 04:41:27;;;;;;;7.53;6.20;;;;;;;19.02;33.02;101304.88;5075366;28;20063;-83
2022/03/03 04:43:54;;;;;;;7.70;6.93;;;;;;;19.02;33.20;101299.50;5076745;28;20052;-83
2022/03/03 04:46:22;;;;;;;7.75;6.40;;;;;;;19.01;32.98;101304.03;5076815;28;20036;-83
2022/03/03 04:48:49;;;;;;;8.57;6.28;;;;;;;19.02;33.01;101311.09;5076152;28;20093;-83
2022/03/03 04:51:16;;;;;;;7.50;5.95;;;;;;;19.03;33.07;101311.94;5076109;28;20060;-83
2022/03/03 04:53:44;;;;;;;6.00;5.40;;;;;;;19.03;32.91;101306.56;5075912;28;20044;-83
2022/03/03 04:56:11;;;;;;;6.97;6.07;;;;;;;19.03;33.07;101306.56;5075932;28;20036;-83
2022/03/03 04:58:40;;;;;;;6.70;6.00;;;;;;;19.02;32.88;101297.66;5075980;28;20045;-83
2022/03/03 05:01:07;;;;;;;7.20;6.20;;;;;;;19.02;33.09;101300.34;5075816;28;20041;-83
2022/03/03 05:03:35;;;;;;;7.65;5.97;;;;;;;19.02;33.07;101295.00;5076149;28;20052;-85
2022/03/03 05:06:02;;;;;;;6.43;5.82;;;;;;;19.02;33.05;101292.31;5076643;28;20036;-85
2022/03/03 05:08:29;;;;;;;6.13;5.47;;;;;;;19.03;33.05;101295.84;5075759;28;20385;-82
2022/03/03 05:10:57;;;;;;;6.10;5.50;;;;;;;19.03;33.09;101290.47;5076559;28;20044;-82
2022/03/03 05:13:24;;;;;;;6.28;5.68;;;;;;;19.04;33.03;101297.56;5075958;28;20047;-82
2022/03/03 05:15:51;;;;;;;6.15;5.55;;;;;;;19.02;33.07;101295.00;5075584;28;20044;-82
2022/03/03 05:18:19;;;;;;;8.32;6.40;;;;;;;19.03;32.98;101295.84;5075617;28;20076;-82
2022/03/03 05:20:46;;;;;;;6.30;5.70;;;;;;;19.04;33.09;101302.94;5074745;28;20048;-82
2022/03/03 05:23:14;;;;;;;6.78;5.97;;;;;;;19.02;33.07;101288.78;5075367;28;20396;-83
2022/03/03 05:25:41;;;;;;;10.40;6.70;;;;;;;19.03;33.00;101298.53;5075582;28;20484;-84
2022/03/03 05:28:08;;;;;;;6.35;5.50;;;;;;;19.04;32.89;101297.56;5075457;28;20052;-84
2022/03/03 05:30:37;;;;;;;6.75;6.05;;;;;;;19.02;32.95;101291.44;5074158;28;20044;-84
2022/03/03 05:33:06;;;;;;;6.85;6.13;;;;;;;19.02;32.88;101297.66;5076109;28;20052;-84
2022/03/03 05:35:34;;;;;;;6.32;5.70;;;;;;;19.02;32.88;101299.50;5075994;28;20044;-84
2022/03/03 05:38:01;;;;;;;6.43;5.82;;;;;;;19.02;33.05;101295.00;5075988;28;20045;-84
2022/03/03 05:40:30;;;;;;;6.32;5.25;;;;;;;19.01;32.87;101293.28;5075255;28;20048;-83
2022/03/03 05:42:57;;;;;;;7.47;5.90;;;;;;;19.02;32.99;101292.31;5075032;28;20049;-83
2022/03/03 05:45:25;;;;;;;7.05;5.82;;;;;;;19.01;33.10;101289.75;5075169;28;20138;-82
2022/03/03 05:47:52;;;;;;;5.75;5.13;;;;;;;19.00;32.94;101291.59;5073938;28;20041;-82
2022/03/03 05:50:20;;;;;;;6.97;5.97;;;;;;;19.01;33.16;101293.28;5075025;28;20045;-85
2022/03/03 05:52:48;;;;;;;7.10;6.40;;;;;;;19.01;32.79;101289.75;5073973;28;20056;-84
2022/03/03 05:55:15;;;;;;;6.95;6.10;;;;;;;19.01;33.00;101295.97;5075439;28;20431;-84
2022/03/03 05:57:49;;;;;;;7.53;5.82;;;;;;;19.01;32.87;101301.34;5074697;28;20045;-84
2022/03/03 06:00:17;;;;;;;7.15;6.40;;;;;;;19.02;32.98;101300.34;5074460;28;20389;-83
2022/03/03 06:02:49;;;;;;;6.13;5.38;;;;;;;19.01;32.95;101301.34;5075016;28;20044;-83
2022/03/03 06:05:23;;;;;;;6.88;6.18;;;;;;;19.02;32.95;101310.22;5075514;28;20051;-84
2022/03/03 06:07:52;;;;;;;;;;;;;;;19.01;33.16;101311.22;5074864;28;20041;-84
2022/03/03 06:10:25;;;;;;;8.13;5.43;;;;;;;19.00;33.12;101310.38;5074356;28;19943;-84
2022/03/03 06:13:12;;;;;;;6.53;5.43;;;;;;;18.99;33.18;101314.00;5075698;28;20118;-85
2022/03/03 06:15:42;;;;;;;6.13;5.22;;;;;;;18.97;33.35;101307.91;5071561;28;20053;-84
2022/03/03 06:18:12;;;;;;;8.13;6.10;;;;;;;18.97;33.54;101313.28;5076068;28;20056;-84
2022/03/03 06:20:43;;;;;;;6.57;5.35;;;;;;;18.99;33.30;101313.16;5076017;28;20051;-86
2022/03/03 06:23:10;;;;;;;6.70;5.85;;;;;;;18.97;33.36;101312.44;5075971;28;20049;-86
2022/03/03 06:25:37;;;;;;;5.65;4.93;;;;;;;18.97;33.44;101312.44;5075128;28;20052;-83
2022/03/03 06:28:05;;;;;;;6.57;5.70;;;;;;;18.96;33.50;101308.91;5074253;28;20111;-83
2022/03/03 06:30:33;;;;;;;6.78;5.57;;;;;;;18.97;33.55;101315.09;5074682;28;20048;-84
2022/03/03 06:33:00;;;;;;;6.10;5.50;;;;;;;18.96;33.66;101316.94;5073061;28;20049;-84
2022/03/03 06:35:28;;;;;;;6.10;5.50;;;;;;;18.96;33.46;101316.09;5074060;28;20052;-84
2022/03/03 06:37:55;;;;;;;5.80;5.20;;;;;;;18.95;33.53;101319.72;5073384;28;20052;-85
2022/03/03 06:40:22;;;;;;;6.13;5.40;;;;;;;18.94;33.43;101308.13;5073055;28;20048;-85
2022/03/03 06:42:51;;;;;;;6.20;5.50;;;;;;;18.93;33.26;101319.84;5074026;28;20048;-85
2022/03/03 06:45:25;;;;;;;5.93;5.05;;;;;;;18.94;33.44;101320.69;5073986;28;20411;-86
2022/03/03 06:47:57;;;;;;;6.32;5.40;;;;;;;18.94;33.50;101320.69;5074469;28;20049;-85
2022/03/03 06:50:25;;;;;;;6.83;5.97;;;;;;;18.92;33.50;101320.84;5073815;28;20041;-83
2022/03/03 06:52:53;;;;;;;6.63;5.53;;;;;;;18.93;33.43;101322.53;5072396;28;20385;-83
2022/03/03 06:55:23;;;;;;;7.45;4.85;;;;;;;18.92;33.60;101326.19;5073708;28;20416;-84
2022/03/03 06:57:54;;;;;;;6.60;5.95;;;;;;;18.91;33.46;101321.78;5073606;28;20048;-83
2022/03/03 07:00:27;;;;;;;5.80;5.10;;;;;;;18.93;33.56;101329.72;5074196;28;20049;-84
2022/03/03 07:02:55;;;;;;;7.45;5.95;;;;;;;18.93;33.63;101327.06;5073909;28;20402;-83
2022/03/03 07:05:23;;;;;;;6.63;5.50;;;;;;;18.92;33.55;101325.31;5073619;28;20400;-83
2022/03/03 07:07:54;;;;;;;5.47;4.97;;;;;;;18.92;33.47;101328.00;5073991;28;20036;-83
2022/03/03 07:10:25;;;;;;;7.78;5.38;;;;;;;18.92;33.38;101326.19;5073603;28;20051;-82
2022/03/03 07:12:55;;;;;;;6.97;5.43;;;;;;;18.92;33.57;101322.63;5074046;28;20049;-83
2022/03/03 07:15:24;;;;;;;6.13;5.07;;;;;;;18.92;33.51;101326.19;5073930;28;20052;-83
2022/03/03 07:18:13;;;;;;;7.07;6.00;;;;;;;18.92;33.44;101322.63;5073316;28;20036;-84
2022/03/03 07:20:53;;;;;;;5.68;5.07;;;;;;;18.92;33.48;101326.19;5074142;28;20052;-85
2022/03/03 07:23:32;;;;;;;7.40;5.82;;;;;;;18.93;33.35;101329.72;5072412;28;20055;-86
2022/03/03 07:26:01;;;;;;;6.00;5.40;;;;;;;18.93;33.30;101329.72;5073544;28;20385;-86
2022/03/03 07:28:29;;;;;;;7.93;5.72;;;;;;;18.93;33.45;101329.72;5074221;28;20068;-86
2022/03/03 07:31:01;;;;;;;5.88;5.03;;;;;;;18.93;33.42;101330.59;5073351;28;20518;-84
2022/03/03 07:33:43;;;;;;;6.25;5.65;;;;;;;18.95;33.41;101333.13;5074121;28;20052;-84
2022/03/03 07:36:22;;;;;;;6.47;5.43;;;;;;;18.93;33.33;101327.06;5073833;28;20060;-85
2022/03/03 07:38:59;;;;;;;6.95;5.57;;;;;;;18.93;33.40;101337.78;5073786;28;20044;-85
2022/03/03 07:41:28;;;;;;;6.45;5.75;;;;;;;18.93;33.42;101327.91;5073679;28;20056;-85
2022/03/03 07:43:58;;;;;;;7.10;5.68;;;;;;;18.92;33.49;101330.69;5072414;28;20101;-83
2022/03/03 07:46:27;;;;;;;6.07;5.47;;;;;;;18.93;33.47;101335.09;5073633;28;20051;-83
2022/03/03 07:48:55;;;;;;;6.25;5.53;;;;;;;18.92;33.40;101326.19;5072285;28;20365;-84
2022/03/03 07:51:25;;;;;;;7.45;5.35;;;;;;;18.94;33.86;101328.75;5071187;28;20052;-82
2022/03/03 07:53:53;;;;;;;6.80;5.45;;;;;;;18.93;33.69;101325.22;5072841;28;20052;-82
2022/03/03 07:56:28;;;;;;;6.95;5.45;;;;;;;18.94;33.77;101326.91;5073113;28;20053;-83
2022/03/03 07:59:02;;;;;;;6.93;5.97;;;;;;;18.94;33.86;101324.25;5072246;28;20075;-81
2022/03/03 08:01:35;;;;;;;8.38;5.20;;;;;;;18.95;34.32;101331.31;5073523;28;20044;-83
2022/03/03 08:04:03;;;;;;;9.00;6.03;;;;;;;18.94;34.42;101339.47;5073561;28;20457;-82
2022/03/03 08:06:32;;;;;;;7.93;5.97;;;;;;;18.94;34.31;101331.44;5073341;28;20055;-83
2022/03/03 08:09:00;;;;;;;7.65;4.93;;;;;;;18.95;34.63;101338.50;5072837;28;20067;-83
2022/03/03 08:11:29;;;;;;;6.85;5.15;;;;;;;18.93;34.80;101338.63;5072631;28;20048;-83
2022/03/03 08:13:56;;;;;;;6.15;5.47;;;;;;;18.92;34.77;101328.88;5073028;28;20047;-83
2022/03/03 08:16:24;;;;;;;7.38;6.53;;;;;;;18.91;34.75;101334.34;5073621;28;20115;-83
2022/03/03 08:18:56;;;;;;;10.32;7.10;;;;;;;18.90;34.51;101336.19;5074558;28;20045;-83
2022/03/03 08:21:24;;;;;;;8.68;7.78;;;;;;;18.89;34.23;101333.63;5073152;28;20049;-83
2022/03/03 08:23:54;;;;;;;9.13;7.47;;;;;;;18.88;34.14;101334.56;5074776;28;20488;-86
2022/03/03 08:26:25;;;;;;;9.77;8.05;;;;;;;18.87;34.06;101340.91;5073891;28;20048;-85
2022/03/03 08:28:52;;;;;;;10.95;8.77;;;;;;;18.87;34.06;101332.88;5073667;28;20403;-84
2022/03/03 08:31:32;;;;;;;8.50;7.13;;;;;;;18.87;34.10;101333.72;5073608;28;20051;-84
2022/03/03 08:34:03;;;;;;;11.77;8.50;;;;;;;18.87;34.24;101339.09;5072700;28;20040;-84
2022/03/03 08:36:37;;;;;;;9.68;7.05;;;;;;;18.87;33.99;101336.41;5073054;28;20044;-82
2022/03/03 08:39:07;;;;;;;9.40;8.00;;;;;;;18.88;33.87;101331.88;5071667;28;20060;-82
2022/03/03 08:41:36;;;;;;;10.85;8.32;;;;;;;18.88;33.75;101329.19;5072672;28;20115;-81
2022/03/03 08:44:07;;;;;;;10.02;8.40;;;;;;;18.88;33.84;101335.44;5072979;28;20048;-82
2022/03/03 08:46:37;;;;;;;10.93;7.70;;;;;;;18.88;33.89;101334.56;5073232;28;20045;-82
2022/03/03 08:49:07;;;;;;;9.40;8.18;;;;;;;18.87;33.82;101332.88;5071879;28;20495;-84
2022/03/03 08:51:37;;;;;;;10.00;7.65;;;;;;;18.88;33.78;101331.88;5073297;28;20048;-84
2022/03/03 08:54:05;;;;;;;9.18;7.80;;;;;;;18.88;33.85;101330.09;5072568;28;20052;-82
2022/03/03 08:56:33;;;;;;;11.05;8.65;;;;;;;18.89;33.70;101322.88;5055144;28;20053;-83
2022/03/03 08:59:00;;;;;;;10.45;8.85;;;;;;;18.88;33.15;101321.16;5075876;28;20044;-83
2022/03/03 09:01:29;;;;;;;12.52;9.38;;;;;;;18.90;32.80;101324.59;5076420;28;20045;-84
2022/03/03 09:03:58;;;;;;;10.80;9.20;;;;;;;18.89;32.54;101328.25;5074969;28;20052;-84
2022/03/03 09:06:27;;;;;;;11.57;9.95;;;;;;;18.89;32.38;101321.06;5075516;28;20052;-85
2022/03/03 09:08:55;;;;;;;10.48;9.43;;;;;;;18.88;31.95;101311.31;5075911;28;20049;-83
2022/03/03 09:11:22;;;;;;;10.95;9.40;;;;;;;18.88;31.94;101307.75;5076243;28;20115;-83
2022/03/03 09:13:50;;;;;;;14.75;9.82;;;;;;;18.87;31.58;101311.41;5075922;28;20055;-83
2022/03/03 09:16:17;;;;;;;11.45;10.05;;;;;;;18.87;31.68;101308.72;5076219;28;20071;-83
2022/03/03 09:18:46;;;;;;;11.23;9.57;;;;;;;18.87;32.06;101308.72;5075854;28;20058;-83
2022/03/03 09:21:14;;;;;;;10.70;8.18;;;;;;;18.87;32.31;101308.72;5074646;28;20056;-84
2022/03/03 09:23:42;;;;;;;10.15;8.70;;;;;;;18.88;32.70;101305.06;5076047;28;20503;-83
2022/03/03 09:26:10;;;;;;;11.88;7.95;;;;;;;18.88;32.60;101305.06;5075825;28;20048;-82
2022/03/03 09:28:39;;;;;;;12.57;8.18;;;;;;;18.89;33.09;101304.97;5075931;28;20052;-83
2022/03/03 09:31:06;;;;;;;9.27;7.70;;;;;;;18.90;33.13;101311.19;5074780;28;20063;-82
2022/03/03 09:33:33;;;;;;;10.60;8.00;;;;;;;18.88;33.15;101305.94;5074627;28;20044;-83
2022/03/03 09:36:01;;;;;;;9.98;8.02;;;;;;;18.91;32.98;101312.88;5075690;28;20044;-82
2022/03/03 09:38:28;;;;;;;10.38;7.43;;;;;;;18.90;33.26;101308.50;5075310;28;20048;-82
2022/03/03 09:40:55;;;;;;;10.48;8.05;;;;;;;18.91;33.36;101302.16;5075407;28;20051;-83
2022/03/03 09:43:23;;;;;;;10.02;6.20;;;;;;;18.92;33.50;101306.53;5074721;28;20047;-84
2022/03/03 09:45:50;;;;;;;9.20;6.60;;;;;;;18.92;33.51;101302.06;5074419;28;20051;-84
2022/03/03 09:48:18;;;;;;;7.72;6.68;;;;;;;18.93;33.46;101305.59;5075715;28;20487;-85
2022/03/03 09:50:45;;;;;;;10.60;7.10;;;;;;;18.93;33.63;101295.72;5075782;28;20037;-82
2022/03/03 09:53:16;;;;;;;8.27;6.40;;;;;;;18.94;33.83;101301.91;5075757;28;20060;-84
2022/03/03 09:55:46;;;;;;;11.75;6.78;;;;;;;18.95;33.69;101292.88;5076255;28;20045;-84
2022/03/03 09:58:14;;;;;;;6.78;6.03;;;;;;;18.94;33.52;101297.41;5075097;28;20052;-82
2022/03/03 10:00:42;;;;;;;9.48;6.10;;;;;;;18.95;33.67;101298.25;5075071;28;20045;-83
2022/03/03 10:03:15;;;;;;;9.95;6.55;;;;;;;18.94;33.71;101300.09;5074817;28;20059;-83
2022/03/03 10:05:51;;;;;;;8.90;6.00;;;;;;;18.96;33.74;101292.78;5075327;28;20045;-83
2022/03/03 10:08:24;;;;;;;9.52;6.30;;;;;;;18.95;33.89;101290.22;5075550;28;20051;-85
2022/03/03 10:10:55;;;;;;;8.82;5.68;;;;;;;18.95;33.61;101287.53;5075486;28;20048;-84
2022/03/03 10:13:23;;;;;;;8.30;6.50;;;;;;;18.95;33.61;101282.16;5074115;28;20052;-82
2022/03/03 10:15:51;;;;;;;8.95;6.38;;;;;;;18.96;34.00;101279.38;5075487;28;20056;-83
2022/03/03 10:18:20;;;;;;;8.43;6.28;;;;;;;18.95;33.72;101271.44;5073272;28;20044;-83
2022/03/03 10:20:50;;;;;;;7.28;5.97;;;;;;;18.95;33.80;101266.91;5075273;28;20063;-83
2022/03/03 10:23:22;;;;;;;7.97;6.25;;;;;;;18.96;33.89;101270.47;5075270;28;20048;-83
2022/03/03 10:25:52;;;;;;;7.28;5.45;;;;;;;18.95;33.68;101266.06;5074758;28;20052;-83
2022/03/03 10:28:24;;;;;;;6.75;5.82;;;;;;;18.95;33.84;101258.00;5073214;28;20488;-84
2022/03/03 10:30:54;;;;;;;11.65;8.93;;;;;;;18.97;32.20;101259.63;5074678;28;20052;-83
2022/03/03 10:33:25;;;;;;;10.68;9.30;;;;;;;18.98;32.74;101257.78;5074240;28;20044;-83
2022/03/03 10:36:26;;;;;;;12.70;9.63;;;;;;;18.98;32.33;101261.31;5074954;28;20040;-84
2022/03/03 10:38:59;;;;;;;11.05;9.43;;;;;;;18.96;32.20;101249.88;5074279;28;20051;-84
2022/03/03 10:41:40;;;;;;;13.75;11.25;;;;;;;18.96;31.80;101249.00;5074440;28;20044;-83
2022/03/03 10:44:23;;;;;;;12.13;10.88;;;;;;;18.95;32.10;101250.81;5075522;28;20052;-83
2022/03/03 10:47:06;;;;;;;13.88;11.40;;;;;;;18.97;31.41;101250.72;5074862;28;20051;-85
2022/03/03 10:49:36;;;;;;;16.52;13.25;;;;;;;18.99;30.93;101248.75;5073842;28;20040;-84
2022/03/03 10:52:09;;;;;;;14.52;12.40;;;;;;;18.99;30.94;101236.19;5074914;28;20045;-83
2022/03/03 10:54:58;;;;;;;15.63;13.82;;;;;;;19.00;30.78;101235.25;5074983;28;20052;-83
2022/03/03 10:57:33;;;;;;;14.45;12.02;;;;;;;19.00;31.46;101237.06;5074733;28;20048;-83
2022/03/03 11:00:25;;;;;;;12.48;10.48;;;;;;;18.99;31.89;101227.28;5073835;28;20060;-84
2022/03/03 11:02:55;;;;;;;10.57;9.45;;;;;;;18.98;32.16;101236.31;5074920;28;20500;-83
2022/03/03 11:05:25;;;;;;;9.65;8.65;;;;;;;18.97;32.71;101230.09;5074403;28;20044;-83
2022/03/03 11:07:53;;;;;;;9.50;8.35;;;;;;;18.97;32.72;101218.53;5074634;28;20064;-83
2022/03/03 11:10:24;;;;;;;9.98;7.57;;;;;;;18.97;32.85;101222.06;5074890;28;20044;-84
2022/03/03 11:12:52;;;;;;;9.13;7.50;;;;;;;18.98;33.00;101210.34;5075825;28;20048;-84
2022/03/03 11:15:21;;;;;;;10.52;8.15;;;;;;;18.97;33.18;101211.31;5074281;28;20044;-83
2022/03/03 11:17:50;;;;;;;8.70;7.60;;;;;;;18.98;33.31;101206.81;5071888;28;20060;-84
2022/03/03 11:20:19;;;;;;;11.05;8.13;;;;;;;18.98;33.29;101204.13;5072925;28;20052;-83
2022/03/03 11:22:52;;;;;;;8.23;6.78;;;;;;;18.98;33.26;101199.59;5073311;28;20067;-84
2022/03/03 11:25:31;;;;;;;8.20;7.35;;;;;;;18.97;33.58;101192.53;5072163;28;20446;-85
2022/03/03 11:28:05;;;;;;;9.10;7.28;;;;;;;18.97;33.42;101192.53;5073783;28;20045;-84
2022/03/03 11:30:35;;;;;;;8.35;6.38;;;;;;;18.97;33.39;101184.50;5072496;28;20040;-85
2022/03/03 11:33:22;;;;;;;8.98;6.85;;;;;;;18.98;33.58;101179.97;5072863;28;20040;-84